Time;durP1;ratioP1;P1;durP2;ratioP2;P2;SDS_P1;SDS_P2;PMS_P1;PMS_P2;Temp;Humidity;BMP_temperature;BMP_pressure;BME280_temperature;BME280_humidity;BME280_pressure;Samples;Min_cycle;Max_cycle;Signal;HPM_P1;HPM_P2
2023/03/24 00:00:21;;;;;;;;;;;;;;;19.83;60.88;98953.25;2085957;28;20023;-50
2023/03/24 00:01:21;;;;;;;;;;;;;;;19.84;61.01;98954.09;2087619;28;19932;-51
2023/03/24 00:02:23;;;;;;;;;;;;;;;19.83;61.02;98953.25;2085730;28;19974;-53
2023/03/24 00:03:24;;;;;;;;;;;;;;;19.83;60.89;98957.81;2087753;28;19960;-53
2023/03/24 00:04:26;;;;;;;;;;;;;;;19.83;60.94;98952.44;2086472;28;19933;-54
2023/03/24 00:05:27;;;;;;;;;;;;;;;19.81;60.88;98958.03;2087758;28;19999;-50
2023/03/24 00:06:33;;;;;;;;;;;;;;;19.81;60.94;98955.34;2086018;27;19933;-51
2023/03/24 00:07:37;;;;;;;;;;;;;;;19.81;61.18;98944.56;2086875;27;20100;-52
2023/03/24 00:08:40;;;;;;;;;;;;;;;19.80;61.28;98947.44;2087746;28;19964;-51
2023/03/24 00:09:41;;;;;;;;;;;;;;;19.79;61.06;98952.00;2088502;28;20387;-51
2023/03/24 00:10:46;;;;;;;;;;;;;;;19.78;60.95;98950.38;2088071;28;19936;-50
2023/03/24 00:11:46;;;;;;;;;;;;;;;19.78;60.99;98953.06;2088467;28;19932;-52
2023/03/24 00:12:49;;;;;;;;;;;;;;;19.77;61.08;98953.25;2089088;28;19975;-53
2023/03/24 00:13:50;;;;;;;;;;;;;;;19.76;60.99;98946.22;2086163;28;19960;-50
2023/03/24 00:14:53;;;;;;;;;;;;;;;19.75;60.93;98942.69;2088741;28;20022;-50
2023/03/24 00:15:53;;;;;;;;;;;;;;;19.74;61.13;98948.28;2088446;28;19925;-52
2023/03/24 00:16:57;;;;;;;;;;;;;;;19.74;61.19;98949.09;2087582;28;19970;-49
2023/03/24 00:17:57;;;;;;;;;;;;;;;19.73;61.19;98947.44;2088030;28;20471;-52
2023/03/24 00:18:59;;;;;;;;;;;;;;;19.73;61.01;98938.56;2088401;28;19928;-51
2023/03/24 00:19:59;;;;;;;;;;;;;;;19.73;60.99;98943.94;2089658;28;19975;-50
2023/03/24 00:21:01;;;;;;;;;;;;;;;19.72;60.77;98944.94;2088530;28;19968;-51
2023/03/24 00:22:02;;;;;;;;;;;;;;;19.73;60.91;98952.00;2089308;28;19932;-52
2023/03/24 00:23:03;;;;;;;;;;;;;;;19.73;60.99;98941.25;2087672;27;20545;-52
2023/03/24 00:24:06;;;;;;;;;;;;;;;19.71;61.14;98949.50;2087482;28;21009;-54
2023/03/24 00:25:08;;;;;;;;;;;;;;;19.70;60.88;98942.47;2088450;27;20035;-52
2023/03/24 00:26:11;;;;;;;;;;;;;;;19.71;60.99;98948.69;2088649;28;20475;-51
2023/03/24 00:27:14;;;;;;;;;;;;;;;19.69;60.90;98951.56;2086934;28;20089;-51
2023/03/24 00:28:16;;;;;;;;;;;;;;;19.68;60.82;98949.91;2086962;28;19932;-51
2023/03/24 00:29:18;;;;;;;;;;;;;;;19.69;60.80;98934.59;2090165;28;20568;-51
2023/03/24 00:30:19;;;;;;;;;;;;;;;19.68;60.87;98939.16;2088034;28;19928;-50
2023/03/24 00:31:23;;;;;;;;;;;;;;;19.68;61.01;98939.16;2086009;28;19936;-53
2023/03/24 00:32:23;;;;;;;;;;;;;;;19.66;60.74;98935.81;2088686;28;19925;-51
2023/03/24 00:33:25;;;;;;;;;;;;;;;19.65;61.11;98944.91;2087298;28;19971;-54
2023/03/24 00:34:26;;;;;;;;;;;;;;;19.64;61.09;98944.09;2087603;28;19955;-50
2023/03/24 00:35:28;;;;;;;;;;;;;;;19.66;61.12;98935.00;2088815;28;19925;-51
2023/03/24 00:36:28;;;;;;;;;;;;;;;19.64;60.95;98937.88;2088699;28;19963;-51
2023/03/24 00:37:30;;;;;;;;;;;;;;;19.63;60.77;98937.03;2087777;28;19929;-53
2023/03/24 00:38:30;;;;;;;;;;;;;;;19.63;61.03;98939.72;2088257;28;20588;-50
2023/03/24 00:39:32;;;;;;;;;;;;;;;19.64;61.03;98937.88;2086606;28;19929;-52
2023/03/24 00:40:32;;;;;;;;;;;;;;;19.62;60.78;98934.56;2088384;28;20347;-50
2023/03/24 00:41:34;;;;;;;;;;;;;;;19.63;60.82;98936.19;2087533;28;19932;-54
2023/03/24 00:42:35;;;;;;;;;;;;;;;19.62;60.73;98950.69;2088552;28;19967;-49
2023/03/24 00:43:39;;;;;;;;;;;;;;;19.60;60.84;98936.63;2085970;28;20533;-50
2023/03/24 00:44:39;;;;;;;;;;;;;;;19.59;61.01;98943.84;2088615;28;20016;-56
2023/03/24 00:45:45;;;;;;;;;;;;;;;19.59;60.89;98934.97;2088395;28;19987;-52
2023/03/24 00:46:54;;;;;;;;;;;;;;;19.60;60.84;98937.44;2087961;28;20540;-56
2023/03/24 00:47:56;;;;;;;;;;;;;;;19.59;61.00;98934.97;2087858;28;20050;-53
2023/03/24 00:49:01;;;;;;;;;;;;;;;19.59;60.94;98924.19;2080879;28;20442;-52
2023/03/24 00:50:03;;;;;;;;;;;;;;;19.57;60.96;98926.25;2079064;28;20003;-54
2023/03/24 00:51:06;;;;;;;;;;;;;;;19.58;60.84;98935.97;2083876;28;20306;-51
2023/03/24 00:52:09;;;;;;;;;;;;;;;19.59;60.91;98930.41;2088177;28;19980;-50
2023/03/24 00:53:10;;;;;;;;;;;;;;;19.57;60.99;98928.94;2087339;28;20276;-55
2023/03/24 00:54:12;;;;;;;;;;;;;;;19.57;61.03;98929.78;2087703;28;19929;-53
2023/03/24 00:55:14;;;;;;;;;;;;;;;19.57;60.66;98928.94;2088267;28;19924;-52
2023/03/24 00:56:16;;;;;;;;;;;;;;;19.56;60.59;98930.00;2087537;28;19935;-49
2023/03/24 00:57:20;;;;;;;;;;;;;;;19.57;61.00;98928.94;2088285;28;20868;-53
2023/03/24 00:58:22;;;;;;;;;;;;;;;19.55;60.99;98926.44;2086463;28;20322;-49
2023/03/24 00:59:24;;;;;;;;;;;;;;;19.55;60.55;98937.22;2088323;28;19929;-52
2023/03/24 01:00:26;;;;;;;;;;;;;;;19.55;60.89;98928.31;2085122;28;19935;-53
2023/03/24 01:01:28;;;;;;;;;;;;;;;19.54;60.63;98930.19;2087271;28;19976;-54
2023/03/24 01:02:30;;;;;;;;;;;;;;;19.54;60.80;98929.34;2085257;27;20031;-53
2023/03/24 01:03:33;;;;;;;;;;;;;;;19.54;60.98;98937.44;2088309;28;19933;-53
2023/03/24 01:04:35;;;;;;;;;;;;;;;19.53;60.58;98935.75;2088698;28;19936;-52
2023/03/24 01:05:36;;;;;;;;;;;;;;;19.53;60.86;98933.06;2088303;28;20409;-52
2023/03/24 01:06:37;;;;;;;;;;;;;;;19.52;60.59;98934.09;2087172;28;20179;-51
2023/03/24 01:07:41;;;;;;;;;;;;;;;19.51;60.92;98935.16;2088117;28;20523;-51
2023/03/24 01:08:42;;;;;;;;;;;;;;;19.50;60.68;98931.63;2087821;28;19986;-52
2023/03/24 01:09:45;;;;;;;;;;;;;;;19.50;60.94;98926.25;2088297;28;19928;-52
2023/03/24 01:10:51;;;;;;;;;;;;;;;19.49;60.94;98929.94;2087463;28;19944;-53
2023/03/24 01:11:52;;;;;;;;;;;;;;;19.49;60.83;98929.13;2086523;28;19929;-49
2023/03/24 01:12:55;;;;;;;;;;;;;;;19.48;60.71;98928.31;2078209;28;19976;-52
2023/03/24 01:13:56;;;;;;;;;;;;;;;19.47;60.77;98920.41;2086569;28;20365;-54
2023/03/24 01:14:59;;;;;;;;;;;;;;;19.48;60.85;98922.09;2087752;28;19928;-56
2023/03/24 01:16:00;;;;;;;;;;;;;;;19.46;60.85;98924.16;2088136;28;19974;-50
2023/03/24 01:17:02;;;;;;;;;;;;;;;19.46;60.79;98926.84;2088195;28;19928;-52
2023/03/24 01:18:03;;;;;;;;;;;;;;;19.47;60.61;98928.50;2084202;28;20324;-52
2023/03/24 01:19:05;;;;;;;;;;;;;;;19.46;60.57;98916.09;2086750;28;19935;-55
2023/03/24 01:20:07;;;;;;;;;;;;;;;19.45;60.69;98912.56;2087485;28;19962;-50
2023/03/24 01:21:09;;;;;;;;;;;;;;;19.45;60.62;98917.13;2085931;28;20471;-54
2023/03/24 01:22:11;;;;;;;;;;;;;;;19.46;60.50;98926.84;2087989;28;19935;-52
2023/03/24 01:23:14;;;;;;;;;;;;;;;19.42;60.54;98921.88;2086837;28;19968;-56
2023/03/24 01:24:14;;;;;;;;;;;;;;;19.43;60.55;98920.00;2088548;28;19983;-54
2023/03/24 01:25:17;;;;;;;;;;;;;;;19.42;60.48;98921.88;2086750;28;19928;-54
2023/03/24 01:26:18;;;;;;;;;;;;;;;19.41;60.60;98916.69;2088963;28;19929;-52
2023/03/24 01:27:19;;;;;;;;;;;;;;;19.40;60.74;98928.47;2088178;28;19999;-47
2023/03/24 01:28:23;;;;;;;;;;;;;;;19.38;60.82;98925.97;2087581;28;19939;-53
2023/03/24 01:29:24;;;;;;;;;;;;;;;19.38;60.82;98920.59;2087596;28;20627;-57
2023/03/24 01:30:27;;;;;;;;;;;;;;;19.37;60.78;98921.66;2088399;28;19937;-51
2023/03/24 01:31:28;;;;;;;;;;;;;;;19.37;60.83;98913.56;2087727;28;19952;-51
2023/03/24 01:32:30;;;;;;;;;;;;;;;19.38;60.80;98912.53;2088298;28;20370;-53
2023/03/24 01:33:30;;;;;;;;;;;;;;;19.37;60.75;98910.88;2087218;28;19956;-53
2023/03/24 01:34:32;;;;;;;;;;;;;;;19.37;60.65;98900.13;2087423;28;19932;-49
2023/03/24 01:35:32;;;;;;;;;;;;;;;19.37;60.86;98902.81;2086253;28;20496;-51
2023/03/24 01:36:34;;;;;;;;;;;;;;;19.38;60.73;98911.72;2089051;28;19944;-50
2023/03/24 01:37:35;;;;;;;;;;;;;;;19.37;60.70;98904.69;2086375;28;19942;-51
2023/03/24 01:38:36;;;;;;;;;;;;;;;19.37;60.81;98905.50;2088359;27;20434;-54
2023/03/24 01:39:37;;;;;;;;;;;;;;;19.35;60.81;98907.56;2086109;28;19955;-49
2023/03/24 01:40:40;;;;;;;;;;;;;;;19.34;60.66;98905.91;2086406;28;19939;-55
2023/03/24 01:41:40;;;;;;;;;;;;;;;19.35;60.55;98909.41;2086904;28;20031;-56
2023/03/24 01:42:42;;;;;;;;;;;;;;;19.35;60.46;98910.25;2089394;28;19940;-54
2023/03/24 01:43:43;;;;;;;;;;;;;;;19.34;60.81;98899.72;2085617;28;20465;-53
2023/03/24 01:44:46;;;;;;;;;;;;;;;19.33;60.50;98906.91;2089764;28;19939;-49
2023/03/24 01:46:07;;;;;;;;;;;;;;;19.31;60.76;98903.63;2086715;28;20702;-52
2023/03/24 01:47:08;;;;;;;;;;;;;;;19.33;60.67;98900.72;2088852;28;19950;-54
2023/03/24 01:48:12;;;;;;;;;;;;;;;19.31;60.88;98887.50;2087102;28;19992;-55
2023/03/24 01:49:13;;;;;;;;;;;;;;;19.30;60.87;98893.88;2088183;28;19929;-51
2023/03/24 01:50:14;;;;;;;;;;;;;;;19.30;60.71;98903.81;2089772;28;20634;-49
2023/03/24 01:51:18;;;;;;;;;;;;;;;19.29;60.74;98897.59;2083263;28;19928;-48
2023/03/24 01:52:21;;;;;;;;;;;;;;;19.31;60.63;98900.13;2087808;28;19975;-50
2023/03/24 01:53:23;;;;;;;;;;;;;;;19.29;60.59;98902.16;2086864;28;19929;-55
2023/03/24 01:54:26;;;;;;;;;;;;;;;19.29;60.81;98900.31;2088632;28;19980;-54
2023/03/24 01:55:28;;;;;;;;;;;;;;;19.27;60.57;98901.53;2087758;28;20290;-51
2023/03/24 01:56:31;;;;;;;;;;;;;;;19.28;60.53;98906.72;2086605;28;19986;-49
2023/03/24 01:57:35;;;;;;;;;;;;;;;19.27;60.52;98896.97;2087137;28;19928;-51
2023/03/24 01:58:37;;;;;;;;;;;;;;;19.27;60.70;98896.16;2087430;28;20039;-55
2023/03/24 01:59:40;;;;;;;;;;;;;;;19.26;60.74;98892.63;2086364;28;19931;-55
2023/03/24 02:00:41;;;;;;;;;;;;;;;19.26;60.90;98903.41;2086250;28;19975;-52
2023/03/24 02:01:44;;;;;;;;;;;;;;;19.26;60.60;98900.72;2087982;28;19939;-55
2023/03/24 02:02:48;;;;;;;;;;;;;;;19.23;60.84;98893.03;2089116;28;20035;-48
2023/03/24 02:03:51;;;;;;;;;;;;;;;19.24;60.61;98894.69;2088481;28;19935;-53
2023/03/24 02:04:53;;;;;;;;;;;;;;;19.22;60.64;98895.91;2088015;28;19932;-54
2023/03/24 02:05:57;;;;;;;;;;;;;;;19.22;60.85;98896.75;2087016;28;19978;-50
2023/03/24 02:07:00;;;;;;;;;;;;;;;19.22;60.69;98891.38;2085875;28;20675;-50
2023/03/24 02:08:07;;;;;;;;;;;;;;;19.22;60.63;98895.91;2088727;28;20662;-50
2023/03/24 02:09:09;;;;;;;;;;;;;;;19.23;60.59;98897.59;2086565;28;21057;-49
2023/03/24 02:10:12;;;;;;;;;;;;;;;19.22;60.55;98890.53;2088469;28;19940;-48
2023/03/24 02:11:13;;;;;;;;;;;;;;;19.21;60.68;98887.03;2086786;28;19944;-54
2023/03/24 02:12:15;;;;;;;;;;;;;;;19.20;60.35;98883.53;2088937;28;20499;-50
2023/03/24 02:13:16;;;;;;;;;;;;;;;19.19;60.42;98884.56;2088211;28;19964;-54
2023/03/24 02:14:17;;;;;;;;;;;;;;;19.19;60.80;98886.41;2087513;28;19956;-52
2023/03/24 02:15:19;;;;;;;;;;;;;;;19.18;60.40;98887.44;2087028;28;20467;-51
2023/03/24 02:16:36;;;;;;;;;;;;;;;19.17;60.58;98883.91;2090993;28;19928;-54
2023/03/24 02:17:48;;;;;;;;;;;;;;;19.18;60.50;98890.94;2078413;28;20690;-56
2023/03/24 02:18:53;;;;;;;;;;;;;;;19.18;60.69;98884.75;2086829;28;19925;-54
2023/03/24 02:20:16;;;;;;;;;;;;;;;19.18;60.49;98876.69;2086097;28;19978;-48
2023/03/24 02:21:28;;;;;;;;;;;;;;;19.16;60.69;98884.13;2082605;28;19968;-49
2023/03/24 02:22:54;;;;;;;;;;;;;;;19.15;60.43;98885.97;2085973;28;20390;-55
2023/03/24 02:24:12;;;;;;;;;;;;;;;19.16;60.68;98884.13;2087588;28;19936;-51
2023/03/24 02:25:29;;;;;;;;;;;;;;;19.15;60.53;98887.84;2087817;28;19934;-49
2023/03/24 02:26:44;;;;;;;;;;;;;;;19.15;60.69;98890.53;2086433;28;19999;-54
2023/03/24 02:28:09;;;;;;;;;;;;;;;19.14;60.56;98886.19;2087446;28;19928;-51
2023/03/24 02:29:22;;;;;;;;;;;;;;;19.13;60.45;98888.03;2079311;28;20012;-51
2023/03/24 02:30:33;;;;;;;;;;;;;;;19.12;60.36;98883.69;2088237;27;20899;-53
2023/03/24 02:31:45;;;;;;;;;;;;;;;19.13;60.70;98881.81;2087573;28;19925;-53
2023/03/24 02:33:08;;;;;;;;;;;;;;;19.12;60.60;98874.81;2086833;28;19924;-50
2023/03/24 02:34:24;;;;;;;;;;;;;;;19.10;60.70;98882.22;2078756;28;19960;-49
2023/03/24 02:35:59;;;;;;;;;;;;;;;19.09;60.78;98884.09;2086011;28;19964;-56
2023/03/24 02:37:17;;;;;;;;;;;;;;;19.11;60.56;98879.34;2090187;28;20730;-51
2023/03/24 02:38:29;;;;;;;;;;;;;;;19.10;60.42;98879.53;2067143;28;19929;-54
2023/03/24 02:39:45;;;;;;;;;;;;;;;19.09;60.52;98878.72;2085562;28;19940;-53
2023/03/24 02:40:49;;;;;;;;;;;;;;;19.08;60.65;98874.34;2086069;28;20030;-50
2023/03/24 02:41:52;;;;;;;;;;;;;;;19.08;60.43;98868.97;2088393;28;20383;-51
2023/03/24 02:43:00;;;;;;;;;;;;;;;19.07;60.51;98874.56;2086616;28;20268;-53
2023/03/24 02:44:05;;;;;;;;;;;;;;;19.08;60.43;98876.22;2086159;28;19955;-49
2023/03/24 02:45:11;;;;;;;;;;;;;;;19.07;60.58;98877.25;2086776;28;19936;-49
2023/03/24 02:46:19;;;;;;;;;;;;;;;19.07;60.46;98874.56;2087195;28;20015;-53
2023/03/24 02:47:23;;;;;;;;;;;;;;;19.07;60.46;98870.03;2087961;28;20411;-53
2023/03/24 02:48:28;;;;;;;;;;;;;;;19.05;60.59;98873.94;2088108;28;19933;-54
2023/03/24 02:49:32;;;;;;;;;;;;;;;19.04;60.70;98873.09;2088634;28;20402;-49
2023/03/24 02:50:40;;;;;;;;;;;;;;;19.05;60.61;98873.94;2086439;28;19928;-50
2023/03/24 02:51:45;;;;;;;;;;;;;;;19.06;60.37;98875.63;2087300;28;19951;-53
2023/03/24 02:52:48;;;;;;;;;;;;;;;19.05;60.38;98873.94;2077505;28;20417;-50
2023/03/24 02:53:53;;;;;;;;;;;;;;;19.06;60.32;98878.31;2083847;28;19928;-52
2023/03/24 02:54:58;;;;;;;;;;;;;;;19.04;60.39;98877.66;2087867;28;20023;-53
2023/03/24 02:56:06;;;;;;;;;;;;;;;19.02;60.37;98872.47;2083396;28;19976;-51
2023/03/24 02:57:10;;;;;;;;;;;;;;;19.02;60.63;98874.34;2083294;28;19929;-53
2023/03/24 02:58:14;;;;;;;;;;;;;;;19.00;60.52;98871.00;2088063;28;19957;-52
2023/03/24 02:59:19;;;;;;;;;;;;;;;19.02;60.46;98874.34;2087008;28;19928;-50
2023/03/24 03:00:25;;;;;;;;;;;;;;;19.00;60.46;98879.06;2085879;28;20048;-53
2023/03/24 03:01:31;;;;;;;;;;;;;;;19.02;60.53;98871.66;2087164;28;19960;-51
2023/03/24 03:02:32;;;;;;;;;;;;;;;19.00;60.60;98874.56;2085096;28;19959;-53
2023/03/24 03:03:37;;;;;;;;;;;;;;;19.00;60.42;98871.88;2088158;28;19924;-52
2023/03/24 03:04:40;;;;;;;;;;;;;;;19.01;60.38;98867.31;2084027;28;19979;-53
2023/03/24 03:05:44;;;;;;;;;;;;;;;19.00;60.66;98873.69;2086022;28;19933;-50
2023/03/24 03:06:48;;;;;;;;;;;;;;;18.98;60.40;98869.38;2087032;27;19979;-51
2023/03/24 03:07:50;;;;;;;;;;;;;;;18.97;60.54;98872.25;2086850;28;20524;-50
2023/03/24 03:08:52;;;;;;;;;;;;;;;18.96;60.33;98860.66;2085975;28;19961;-53
2023/03/24 03:09:56;;;;;;;;;;;;;;;18.97;60.43;98866.88;2086325;28;19975;-53
2023/03/24 03:10:58;;;;;;;;;;;;;;;18.97;60.46;98878.47;2084194;28;20412;-52
2023/03/24 03:12:00;;;;;;;;;;;;;;;18.96;60.46;98868.72;2087646;28;19929;-50
2023/03/24 03:13:04;;;;;;;;;;;;;;;18.95;60.42;98864.41;2085849;28;19985;-50
2023/03/24 03:14:07;;;;;;;;;;;;;;;18.96;60.26;98865.22;2088275;28;19928;-53
2023/03/24 03:15:10;;;;;;;;;;;;;;;18.96;60.50;98866.03;2086268;28;20047;-51
2023/03/24 03:16:14;;;;;;;;;;;;;;;18.96;60.47;98866.03;2086481;28;20323;-54
2023/03/24 03:17:16;;;;;;;;;;;;;;;18.94;60.50;98862.75;2087803;28;19928;-50
2023/03/24 03:18:21;;;;;;;;;;;;;;;18.96;60.60;98868.72;2085946;28;19975;-53
2023/03/24 03:19:25;;;;;;;;;;;;;;;18.94;60.57;98876.19;2086755;28;19936;-53
2023/03/24 03:20:33;;;;;;;;;;;;;;;18.92;60.47;98867.47;2086150;27;19925;-51
2023/03/24 03:21:35;;;;;;;;;;;;;;;18.93;60.42;98873.69;2085097;27;19928;-52
2023/03/24 03:22:41;;;;;;;;;;;;;;;18.92;60.45;98872.84;2087804;28;20067;-53
2023/03/24 03:23:45;;;;;;;;;;;;;;;18.92;60.44;98877.41;2087083;28;19929;-51
2023/03/24 03:24:51;;;;;;;;;;;;;;;18.92;60.45;98878.22;2085560;28;20673;-49
2023/03/24 03:25:55;;;;;;;;;;;;;;;18.93;60.63;98871.00;2086198;28;19939;-50
2023/03/24 03:27:00;;;;;;;;;;;;;;;18.92;60.79;98878.22;2086107;28;19924;-52
2023/03/24 03:28:02;;;;;;;;;;;;;;;18.91;60.47;98875.72;2085633;28;19971;-51
2023/03/24 03:29:08;;;;;;;;;;;;;;;18.89;60.44;98875.94;2085582;28;19929;-52
2023/03/24 03:30:13;;;;;;;;;;;;;;;18.90;60.72;98877.59;2087521;28;20027;-50
2023/03/24 03:31:17;;;;;;;;;;;;;;;18.90;60.66;98871.41;2085029;28;20881;-52
2023/03/24 03:32:23;;;;;;;;;;;;;;;18.91;60.78;98875.72;2084565;28;19972;-51
2023/03/24 03:33:26;;;;;;;;;;;;;;;18.92;60.30;98872.03;2084969;28;19935;-59
2023/03/24 03:34:30;;;;;;;;;;;;;;;18.90;60.53;98871.41;2085729;28;20913;-53
2023/03/24 03:35:35;;;;;;;;;;;;;;;18.89;60.51;98875.13;2085896;27;19928;-51
2023/03/24 03:36:41;;;;;;;;;;;;;;;18.89;60.81;98873.25;2085900;28;20020;-53
2023/03/24 03:37:47;;;;;;;;;;;;;;;18.88;60.68;98868.06;2084645;28;19936;-53
2023/03/24 03:38:51;;;;;;;;;;;;;;;18.89;60.54;98867.88;2084941;28;20051;-49
2023/03/24 03:39:55;;;;;;;;;;;;;;;18.88;60.53;98868.06;2086132;28;19928;-51
2023/03/24 03:40:58;;;;;;;;;;;;;;;18.88;60.23;98862.69;2085927;28;19924;-52
2023/03/24 03:42:01;;;;;;;;;;;;;;;18.91;60.65;98867.66;2086500;28;19928;-51
2023/03/24 03:43:03;;;;;;;;;;;;;;;18.88;60.54;98868.06;2089697;28;19963;-52
2023/03/24 03:44:05;;;;;;;;;;;;;;;18.86;60.73;98865.59;2089598;28;19940;-51
2023/03/24 03:45:08;;;;;;;;;;;;;;;18.87;60.29;98867.25;2087967;28;20505;-51
2023/03/24 03:46:09;;;;;;;;;;;;;;;18.86;60.69;98873.66;2088440;28;19925;-50
2023/03/24 03:47:10;;;;;;;;;;;;;;;18.85;60.71;98869.28;2086678;28;19928;-50
2023/03/24 03:48:12;;;;;;;;;;;;;;;18.87;60.33;98871.81;2085626;28;20594;-52
2023/03/24 03:49:12;;;;;;;;;;;;;;;18.85;60.54;98866.63;2085398;28;20422;-51
2023/03/24 03:50:14;;;;;;;;;;;;;;;18.83;60.66;98874.03;2085091;28;19933;-50
2023/03/24 03:51:15;;;;;;;;;;;;;;;18.83;60.49;98871.34;2087405;28;20393;-51
2023/03/24 03:52:17;;;;;;;;;;;;;;;18.85;60.31;98868.47;2084969;28;19932;-51
2023/03/24 03:53:19;;;;;;;;;;;;;;;18.84;60.59;98870.34;2082952;28;19936;-51
2023/03/24 03:54:22;;;;;;;;;;;;;;;18.84;60.30;98867.66;2083975;28;19935;-52
2023/03/24 03:55:22;;;;;;;;;;;;;;;18.83;60.65;98874.03;2082482;28;21057;-52
2023/03/24 03:56:25;;;;;;;;;;;;;;;18.82;60.41;98877.75;2085833;28;19924;-49
2023/03/24 03:57:27;;;;;;;;;;;;;;;18.82;60.76;98869.69;2084816;28;20019;-53
2023/03/24 03:58:29;;;;;;;;;;;;;;;18.83;60.31;98873.22;2086160;28;19932;-49
2023/03/24 03:59:32;;;;;;;;;;;;;;;18.81;60.40;98876.13;2091536;28;20279;-52
2023/03/24 04:00:35;;;;;;;;;;;;;;;18.81;60.44;98876.13;2087011;28;20016;-49
2023/03/24 04:01:36;;;;;;;;;;;;;;;18.79;60.50;98864.72;2081166;28;19936;-56
2023/03/24 04:02:43;;;;;;;;;;;;;;;18.80;60.64;98865.56;2076389;28;19958;-54
2023/03/24 04:03:57;;;;;;;;;;;;;;;18.80;60.65;98871.75;2083296;28;20015;-49
2023/03/24 04:05:12;;;;;;;;;;;;;;;18.80;60.42;98866.38;2085567;28;19932;-52
2023/03/24 04:06:18;;;;;;;;;;;;;;;18.81;60.23;98873.44;2083765;28;20412;-51
2023/03/24 04:07:23;;;;;;;;;;;;;;;18.79;60.65;98862.03;2085539;28;19935;-50
2023/03/24 04:08:26;;;;;;;;;;;;;;;18.79;60.42;98864.72;2084559;28;20462;-53
2023/03/24 04:09:35;;;;;;;;;;;;;;;18.77;60.60;98865.94;2082696;28;20395;-56
2023/03/24 04:10:46;;;;;;;;;;;;;;;18.77;60.46;98866.78;2083562;28;19929;-50
2023/03/24 04:12:05;;;;;;;;;;;;;;;18.79;60.35;98862.03;2085483;27;19928;-55
2023/03/24 04:13:13;;;;;;;;;;;;;;;18.80;60.12;98868.25;2086238;27;19971;-53
2023/03/24 04:14:21;;;;;;;;;;;;;;;18.80;60.50;98866.38;2084723;28;19929;-52
2023/03/24 04:15:33;;;;;;;;;;;;;;;18.81;60.25;98862.69;2084695;28;19972;-52
2023/03/24 04:16:41;;;;;;;;;;;;;;;18.81;60.00;98868.06;2083301;28;22496;-52
2023/03/24 04:17:51;;;;;;;;;;;;;;;18.82;59.90;98867.00;2087225;28;20047;-51
2023/03/24 04:18:57;;;;;;;;;;;;;;;18.83;60.23;98865.16;2083718;28;19932;-53
2023/03/24 04:20:02;;;;;;;;;;;;;;;18.83;59.87;98865.97;2082685;27;20019;-53
2023/03/24 04:21:11;;;;;;;;;;;;;;;18.82;60.18;98864.31;2088260;28;19943;-50
2023/03/24 04:22:18;;;;;;;;;;;;;;;18.82;59.70;98864.31;2084999;28;19940;-52
2023/03/24 04:23:26;;;;;;;;;;;;;;;18.82;59.87;98861.63;2088412;28;19960;-52
2023/03/24 04:24:31;;;;;;;;;;;;;;;18.83;59.96;98867.84;2084364;28;19932;-53
2023/03/24 04:25:35;;;;;;;;;;;;;;;18.81;59.80;98868.06;2083429;28;19929;-52
2023/03/24 04:26:40;;;;;;;;;;;;;;;18.82;60.03;98863.50;2086167;28;19928;-51
2023/03/24 04:27:45;;;;;;;;;;;;;;;18.80;59.68;98860.19;2086843;28;20028;-53
2023/03/24 04:28:51;;;;;;;;;;;;;;;18.83;60.04;98873.22;2084492;28;19981;-51
2023/03/24 04:29:55;;;;;;;;;;;;;;;18.83;59.99;98865.16;2085686;28;19944;-50
2023/03/24 04:31:00;;;;;;;;;;;;;;;18.81;59.80;98862.69;2085146;28;19960;-52
2023/03/24 04:32:04;;;;;;;;;;;;;;;18.81;59.92;98862.69;2085929;28;20467;-50
2023/03/24 04:33:08;;;;;;;;;;;;;;;18.83;59.92;98865.16;2085532;28;19975;-50
2023/03/24 04:34:14;;;;;;;;;;;;;;;18.84;60.01;98866.81;2086450;28;19931;-52
2023/03/24 04:35:25;;;;;;;;;;;;;;;18.84;59.74;98864.97;2086037;28;20143;-50
2023/03/24 04:36:31;;;;;;;;;;;;;;;18.89;59.61;98870.56;2083605;27;19935;-52
2023/03/24 04:37:36;;;;;;;;;;;;;;;18.93;59.72;98871.81;2082841;28;19933;-50
2023/03/24 04:38:38;;;;;;;;;;;;;;;18.99;59.37;98870.19;2088164;28;19986;-53
2023/03/24 04:39:41;;;;;;;;;;;;;;;19.01;59.38;98870.00;2086929;28;20003;-53
2023/03/24 04:40:43;;;;;;;;;;;;;;;19.02;59.38;98867.09;2083315;28;19935;-49
2023/03/24 04:41:46;;;;;;;;;;;;;;;19.07;59.12;98872.72;2084892;28;20539;-51
2023/03/24 04:42:51;;;;;;;;;;;;;;;19.13;59.04;98871.06;2082732;28;19933;-51
2023/03/24 04:43:54;;;;;;;;;;;;;;;19.17;58.97;98878.53;2083694;28;21318;-51
2023/03/24 04:44:56;;;;;;;;;;;;;;;19.22;59.08;98864.47;2083537;28;19933;-53
2023/03/24 04:45:57;;;;;;;;;;;;;;;19.24;59.03;98865.13;2083818;28;19933;-51
2023/03/24 04:47:00;;;;;;;;;;;;;;;19.29;58.68;98868.03;2083860;28;19943;-50
2023/03/24 04:48:03;;;;;;;;;;;;;;;19.32;59.01;98866.78;2085146;28;19935;-51
2023/03/24 04:49:05;;;;;;;;;;;;;;;19.33;58.94;98873.81;2085867;28;19929;-51
2023/03/24 04:50:08;;;;;;;;;;;;;;;19.37;59.04;98867.84;2086596;28;20517;-51
2023/03/24 04:51:11;;;;;;;;;;;;;;;19.40;58.87;98867.44;2082932;28;19932;-52
2023/03/24 04:52:11;;;;;;;;;;;;;;;19.41;58.67;98861.00;2085097;28;25015;-53
2023/03/24 04:53:13;;;;;;;;;;;;;;;19.43;58.54;98860.81;2085208;28;20024;-53
2023/03/24 04:54:13;;;;;;;;;;;;;;;19.47;58.65;98862.06;2087143;28;19925;-51
2023/03/24 04:55:27;;;;;;;;;;;;;;;19.48;58.61;98863.75;2087199;28;20436;-53
2023/03/24 04:56:29;;;;;;;;;;;;;;;19.53;58.62;98866.66;2085290;28;19932;-52
2023/03/24 04:57:31;;;;;;;;;;;;;;;19.55;58.75;98855.66;2087992;28;20062;-51
2023/03/24 04:58:31;;;;;;;;;;;;;;;19.56;58.46;98858.16;2089448;28;20189;-51
2023/03/24 04:59:34;;;;;;;;;;;;;;;19.58;58.53;98868.72;2085658;28;20646;-49
2023/03/24 05:00:35;;;;;;;;;;;;;;;19.60;58.39;98861.28;2087750;28;19929;-52
2023/03/24 05:01:37;;;;;;;;;;;;;;;19.60;58.56;98864.78;2087260;28;19937;-51
2023/03/24 05:02:38;;;;;;;;;;;;;;;19.63;58.51;98863.56;2087659;28;20003;-51
2023/03/24 05:03:40;;;;;;;;;;;;;;;19.63;58.42;98863.56;2081110;28;20330;-50
2023/03/24 05:04:42;;;;;;;;;;;;;;;19.65;58.13;98864.19;2086978;28;19925;-51
2023/03/24 05:05:43;;;;;;;;;;;;;;;19.67;58.49;98862.16;2079230;28;19977;-53
2023/03/24 05:06:45;;;;;;;;;;;;;;;19.68;58.14;98862.97;2087937;28;19925;-51
2023/03/24 05:07:46;;;;;;;;;;;;;;;19.70;58.08;98861.75;2083956;28;19925;-52
2023/03/24 05:08:47;;;;;;;;;;;;;;;19.71;58.26;98860.69;2082177;28;20016;-53
2023/03/24 05:09:48;;;;;;;;;;;;;;;19.72;58.18;98866.91;2082024;28;20413;-53
2023/03/24 05:10:49;;;;;;;;;;;;;;;19.73;58.06;98868.59;2085670;28;19925;-49
2023/03/24 05:11:50;;;;;;;;;;;;;;;19.72;58.30;98859.66;2087039;28;19929;-50
2023/03/24 05:12:52;;;;;;;;;;;;;;;19.74;58.08;98857.59;2089158;28;19941;-50
2023/03/24 05:13:52;;;;;;;;;;;;;;;19.77;58.22;98867.13;2086725;28;20053;-53
2023/03/24 05:14:55;;;;;;;;;;;;;;;19.76;57.90;98870.84;2090210;28;20046;-51
2023/03/24 05:15:55;;;;;;;;;;;;;;;19.76;58.12;98862.78;2087880;28;19928;-52
2023/03/24 05:16:57;;;;;;;;;;;;;;;19.78;58.25;98869.63;2086617;28;20365;-51
2023/03/24 05:17:57;;;;;;;;;;;;;;;19.80;58.08;98869.41;2088454;28;19936;-53
2023/03/24 05:18:59;;;;;;;;;;;;;;;19.81;57.92;98869.22;2087875;28;19924;-49
2023/03/24 05:19:59;;;;;;;;;;;;;;;19.81;57.84;98868.38;2090097;28;20019;-53
2023/03/24 05:21:01;;;;;;;;;;;;;;;19.82;58.04;98870.03;2090110;28;20642;-53
2023/03/24 05:22:02;;;;;;;;;;;;;;;19.82;58.03;98875.41;2088960;28;20447;-54
2023/03/24 05:23:03;;;;;;;;;;;;;;;19.83;57.96;98869.81;2087745;28;20344;-53
2023/03/24 05:24:04;;;;;;;;;;;;;;;19.84;57.71;98873.34;2086823;28;19933;-51
2023/03/24 05:25:05;;;;;;;;;;;;;;;19.86;57.93;98877.50;2085138;28;19978;-50
2023/03/24 05:26:07;;;;;;;;;;;;;;;19.86;57.74;98877.50;2086383;28;20635;-53
2023/03/24 05:27:07;;;;;;;;;;;;;;;19.87;57.69;98878.31;2087797;28;19933;-52
2023/03/24 05:28:09;;;;;;;;;;;;;;;19.89;57.97;98875.41;2087213;28;19951;-51
2023/03/24 05:29:09;;;;;;;;;;;;;;;19.89;57.98;98878.09;2089043;28;19924;-52
2023/03/24 05:30:13;;;;;;;;;;;;;;;19.89;57.90;98883.47;2088494;28;19937;-54
2023/03/24 05:31:13;;;;;;;;;;;;;;;19.89;57.76;98881.63;2085723;28;19929;-51
2023/03/24 05:32:15;;;;;;;;;;;;;;;19.90;57.95;98882.47;2087776;28;19979;-53
2023/03/24 05:33:16;;;;;;;;;;;;;;;19.90;57.66;98893.25;2078476;28;20401;-53